createdAt,value
2022-12-24T00:01:19.677Z,29.90
2022-12-24T00:03:47.945Z,29.33
2022-12-24T00:06:23.827Z,29.45
2022-12-24T00:08:51.680Z,28.42
2022-12-24T00:11:19.996Z,28.52
2022-12-24T00:13:49.896Z,30.00
2022-12-24T00:16:19.734Z,28.00
2022-12-24T00:18:47.304Z,28.15
2022-12-24T00:21:16.115Z,28.15
2022-12-24T00:23:43.472Z,27.95
2022-12-24T00:26:13.581Z,27.30
2022-12-24T00:28:41.300Z,25.23
2022-12-24T00:31:17.705Z,25.88
2022-12-24T00:33:47.218Z,25.45
2022-12-24T00:36:15.566Z,23.15
2022-12-24T00:38:49.377Z,15.63
2022-12-24T00:41:27.997Z,10.93
2022-12-24T00:43:56.893Z,4.13
2022-12-24T00:46:26.318Z,3.53
2022-12-24T00:48:53.967Z,3.00
2022-12-24T00:51:22.440Z,2.42
2022-12-24T00:53:50.763Z,1.92
2022-12-24T00:56:21.095Z,2.33
2022-12-24T00:58:48.426Z,1.60
2022-12-24T01:01:16.283Z,1.27
2022-12-24T01:03:43.795Z,1.10
2022-12-24T01:06:18.310Z,1.10
2022-12-24T01:08:45.635Z,1.27
2022-12-24T01:11:13.958Z,0.60
2022-12-24T01:13:41.129Z,0.90
2022-12-24T01:16:19.741Z,0.77
2022-12-24T01:18:47.178Z,0.50
2022-12-24T01:21:17.418Z,0.85
2022-12-24T01:23:44.745Z,0.77
2022-12-24T01:26:14.863Z,0.90
2022-12-24T01:28:42.299Z,0.82
2022-12-24T01:31:18.673Z,1.17
2022-12-24T01:33:49.365Z,0.70
2022-12-24T01:36:22.108Z,0.65
2022-12-24T01:38:50.190Z,1.00
2022-12-24T01:41:39.447Z,0.82
2022-12-24T01:44:37.087Z,0.70
2022-12-24T01:47:25.984Z,0.85
2022-12-24T01:49:59.689Z,0.50
2022-12-24T01:52:33.495Z,0.70
2022-12-24T01:55:15.073Z,0.60
2022-12-24T01:57:48.725Z,0.77
2022-12-24T02:00:16.798Z,0.43
2022-12-24T02:02:47.690Z,0.52
2022-12-24T02:05:30.945Z,0.80
2022-12-24T02:08:00.922Z,0.70
2022-12-24T02:10:28.043Z,0.60
2022-12-24T02:12:59.858Z,0.57
2022-12-24T02:15:35.411Z,0.30
2022-12-24T02:18:05.905Z,0.40
2022-12-24T02:20:54.592Z,0.40
2022-12-24T02:23:33.012Z,0.30
2022-12-24T02:26:15.177Z,0.30
2022-12-24T02:29:06.889Z,0.20
2022-12-24T02:31:58.982Z,0.20
2022-12-24T02:34:38.888Z,0.20
2022-12-24T02:37:15.358Z,0.30
2022-12-24T02:40:15.718Z,0.40
2022-12-24T02:42:49.230Z,0.20
2022-12-24T02:45:27.570Z,0.30
2022-12-24T02:47:56.267Z,0.20
2022-12-24T02:50:24.696Z,0.20
2022-12-24T02:52:52.188Z,0.45
2022-12-24T02:55:19.508Z,0.22
2022-12-24T02:58:05.299Z,0.30
2022-12-24T03:01:16.797Z,0.20
2022-12-24T03:03:47.069Z,0.17
2022-12-24T03:06:29.921Z,0.40
2022-12-24T03:09:33.107Z,0.40
2022-12-24T03:12:39.820Z,0.40
2022-12-24T03:15:20.480Z,0.30
2022-12-24T03:18:16.152Z,0.25
2022-12-24T03:21:00.649Z,0.40
2022-12-24T03:23:28.353Z,0.22
2022-12-24T03:26:01.730Z,0.28
2022-12-24T03:28:29.726Z,0.35
2022-12-24T03:31:03.210Z,0.30
2022-12-24T03:33:30.802Z,0.40
2022-12-24T03:36:00.007Z,0.38
2022-12-24T03:38:27.566Z,0.77
2022-12-24T03:40:57.135Z,0.50
2022-12-24T03:43:24.457Z,0.22
2022-12-24T03:45:51.482Z,0.60
2022-12-24T03:48:18.785Z,0.55
2022-12-24T03:50:45.941Z,0.52
2022-12-24T03:53:13.518Z,0.30
2022-12-24T03:55:40.691Z,0.70
2022-12-24T03:58:08.189Z,0.50
2022-12-24T04:00:35.188Z,0.50
2022-12-24T04:03:02.789Z,0.43
2022-12-24T04:05:29.962Z,0.52
2022-12-24T04:07:57.367Z,0.52
2022-12-24T04:10:24.406Z,0.63
2022-12-24T04:12:51.647Z,0.70
2022-12-24T04:15:18.814Z,0.90
2022-12-24T04:17:46.111Z,0.60
2022-12-24T04:20:13.205Z,0.68
2022-12-24T04:22:40.826Z,0.40
2022-12-24T04:25:08.576Z,0.60
2022-12-24T04:27:36.004Z,0.57
2022-12-24T04:30:03.498Z,0.82
2022-12-24T04:32:30.855Z,0.50
2022-12-24T04:34:57.824Z,0.60
2022-12-24T04:37:25.137Z,0.60
2022-12-24T04:39:52.306Z,0.80
2022-12-24T04:42:19.756Z,0.20
2022-12-24T04:44:51.245Z,0.40
2022-12-24T04:47:18.818Z,0.60
2022-12-24T04:49:45.825Z,0.52
2022-12-24T04:52:13.382Z,0.68
2022-12-24T04:54:40.662Z,0.55
2022-12-24T04:57:08.052Z,0.40
2022-12-24T04:59:35.018Z,0.68
2022-12-24T05:02:02.585Z,0.60
2022-12-24T05:04:29.816Z,0.57
2022-12-24T05:06:57.212Z,0.60
2022-12-24T05:09:24.822Z,0.73
2022-12-24T05:11:54.473Z,0.52
2022-12-24T05:14:21.416Z,0.50
2022-12-24T05:16:48.982Z,0.32
2022-12-24T05:19:16.307Z,0.60
2022-12-24T05:22:06.192Z,0.55
2022-12-24T05:24:51.793Z,0.63
2022-12-24T05:27:19.167Z,0.50
2022-12-24T05:29:46.406Z,0.43
2022-12-24T05:32:13.658Z,0.38
2022-12-24T05:34:40.635Z,0.63
2022-12-24T05:37:10.425Z,0.60
2022-12-24T05:39:37.532Z,0.35
2022-12-24T05:42:05.464Z,0.63
2022-12-24T05:44:32.568Z,0.88
2022-12-24T05:46:59.890Z,0.98
2022-12-24T05:49:27.202Z,0.40
2022-12-24T05:51:57.439Z,0.80
2022-12-24T05:54:24.831Z,0.68
2022-12-24T05:56:52.960Z,0.77
2022-12-24T05:59:19.958Z,0.80
2022-12-24T06:01:48.407Z,0.80
2022-12-24T06:04:20.492Z,1.15
2022-12-24T06:06:54.396Z,1.20
2022-12-24T06:09:21.597Z,0.70
2022-12-24T06:11:49.318Z,0.90
2022-12-24T06:14:16.294Z,0.80
2022-12-24T06:16:43.723Z,0.80
2022-12-24T06:19:10.776Z,1.05
2022-12-24T06:21:38.260Z,0.90
2022-12-24T06:24:05.699Z,0.95
2022-12-24T06:26:32.997Z,0.93
2022-12-24T06:29:02.277Z,0.73
2022-12-24T06:31:29.801Z,0.88
2022-12-24T06:33:57.511Z,0.68
2022-12-24T06:36:26.107Z,0.93
2022-12-24T06:38:56.319Z,0.50
2022-12-24T06:41:24.462Z,0.77
2022-12-24T06:43:53.081Z,0.70
2022-12-24T06:46:21.507Z,0.80
2022-12-24T06:48:49.253Z,0.90
2022-12-24T06:51:22.330Z,0.90
2022-12-24T06:53:52.911Z,1.00
2022-12-24T06:56:22.884Z,0.90
2022-12-24T06:58:50.448Z,0.90
2022-12-24T07:01:19.933Z,0.70
2022-12-24T07:03:47.564Z,1.10
2022-12-24T07:06:19.490Z,0.90
2022-12-24T07:08:46.874Z,1.10
2022-12-24T07:11:14.525Z,1.05
2022-12-24T07:13:41.654Z,0.80
2022-12-24T07:16:09.277Z,0.57
2022-12-24T07:18:36.906Z,0.98
2022-12-24T07:21:05.642Z,0.82
2022-12-24T07:23:33.062Z,0.90
2022-12-24T07:26:05.799Z,0.80
2022-12-24T07:28:33.573Z,0.80
2022-12-24T07:31:01.277Z,0.82
2022-12-24T07:33:32.173Z,1.02
2022-12-24T07:36:07.264Z,0.88
2022-12-24T07:38:35.378Z,1.00
2022-12-24T07:41:02.838Z,0.80
2022-12-24T07:43:30.110Z,1.30
2022-12-24T07:45:58.569Z,0.88
2022-12-24T07:48:27.275Z,0.85
2022-12-24T07:50:56.740Z,1.50
2022-12-24T07:53:26.091Z,1.35
2022-12-24T07:55:59.238Z,1.10
2022-12-24T07:58:28.748Z,0.93
2022-12-24T08:00:58.285Z,0.70
2022-12-24T08:03:25.642Z,0.88
2022-12-24T08:05:53.294Z,1.30
2022-12-24T08:08:20.652Z,1.10
2022-12-24T08:10:48.213Z,1.05
2022-12-24T08:13:16.301Z,0.90
2022-12-24T08:15:44.853Z,1.25
2022-12-24T08:18:12.665Z,0.95
2022-12-24T08:20:41.042Z,1.20
2022-12-24T08:23:09.251Z,0.90
2022-12-24T08:25:37.149Z,1.25
2022-12-24T08:28:05.681Z,1.58
2022-12-24T08:30:33.781Z,1.02
2022-12-24T08:33:01.050Z,1.20
2022-12-24T08:35:28.986Z,1.10
2022-12-24T08:37:56.187Z,0.90
2022-12-24T08:40:23.705Z,1.13
2022-12-24T08:42:50.956Z,1.20
2022-12-24T08:45:20.907Z,1.30
2022-12-24T08:47:50.185Z,1.13
2022-12-24T08:50:17.643Z,1.15
2022-12-24T08:52:44.843Z,1.20
2022-12-24T08:55:12.488Z,1.20
2022-12-24T08:57:39.527Z,1.10
2022-12-24T09:00:07.925Z,1.13
2022-12-24T09:02:35.762Z,1.10
2022-12-24T09:05:03.918Z,1.10
2022-12-24T09:07:31.128Z,1.40
2022-12-24T09:09:58.687Z,1.02
2022-12-24T09:12:25.675Z,0.93
2022-12-24T09:15:03.421Z,0.82
2022-12-24T09:17:31.756Z,1.00
2022-12-24T09:19:59.176Z,0.82
2022-12-24T09:22:28.380Z,0.98
2022-12-24T09:24:56.180Z,1.20
2022-12-24T09:27:23.557Z,1.20
2022-12-24T09:29:51.177Z,1.00
2022-12-24T09:32:18.784Z,1.00
2022-12-24T09:34:46.306Z,1.20
2022-12-24T09:37:13.483Z,0.90
2022-12-24T09:39:40.928Z,0.93
2022-12-24T09:42:35.543Z,0.55
2022-12-24T09:45:19.998Z,0.77
2022-12-24T09:47:55.768Z,1.10
2022-12-24T09:50:35.350Z,0.90
2022-12-24T09:53:12.646Z,1.00
2022-12-24T09:55:47.571Z,1.15
2022-12-24T09:58:29.791Z,0.85
2022-12-24T10:00:57.511Z,1.00
2022-12-24T10:03:24.863Z,1.30
2022-12-24T10:06:08.330Z,1.42
2022-12-24T10:08:55.860Z,1.40
2022-12-24T10:11:29.254Z,0.85
2022-12-24T10:14:11.876Z,1.25
2022-12-24T10:17:00.562Z,0.95
2022-12-24T10:19:40.044Z,0.95
2022-12-24T10:22:13.342Z,1.30
2022-12-24T10:25:13.996Z,1.13
2022-12-24T10:27:41.363Z,1.17
2022-12-24T10:30:20.918Z,1.13
2022-12-24T10:32:51.589Z,1.05
2022-12-24T10:35:24.619Z,1.25
2022-12-24T10:37:53.109Z,1.30
2022-12-24T10:40:33.885Z,1.05
2022-12-24T10:43:01.622Z,1.10
2022-12-24T10:45:40.086Z,1.75
2022-12-24T10:48:13.926Z,2.58
2022-12-24T10:50:55.046Z,1.58
2022-12-24T10:53:31.295Z,1.20
2022-12-24T10:58:37.499Z,1.27
2022-12-24T11:01:05.538Z,1.80
2022-12-24T11:03:36.375Z,1.27
2022-12-24T11:06:15.414Z,1.30
2022-12-24T11:08:45.102Z,1.70
2022-12-24T11:11:20.846Z,1.50
2022-12-24T11:13:51.491Z,1.35
2022-12-24T11:16:36.770Z,1.13
2022-12-24T11:19:06.815Z,1.15
2022-12-24T11:21:37.950Z,1.55
2022-12-24T11:24:19.927Z,2.05
2022-12-24T11:26:47.195Z,1.60
2022-12-24T11:29:17.863Z,1.33
2022-12-24T11:31:49.155Z,1.20
2022-12-24T11:34:24.659Z,1.27
2022-12-24T11:36:53.607Z,1.40
2022-12-24T11:39:23.560Z,2.33
2022-12-24T11:41:51.561Z,1.50
2022-12-24T11:44:28.433Z,1.42
2022-12-24T11:46:59.295Z,1.52
2022-12-24T11:49:31.776Z,1.50
2022-12-24T11:52:11.166Z,1.60
2022-12-24T11:55:15.395Z,1.70
2022-12-24T11:57:54.891Z,1.73
2022-12-24T12:00:22.374Z,1.30
2022-12-24T12:02:54.700Z,1.80
2022-12-24T12:05:28.047Z,1.50
2022-12-24T12:08:20.275Z,1.40
2022-12-24T12:10:52.650Z,1.98
2022-12-24T12:13:27.849Z,1.67
2022-12-24T12:16:26.769Z,1.52
2022-12-24T12:19:13.090Z,1.40
2022-12-24T12:21:47.044Z,1.90
2022-12-24T12:24:31.643Z,1.42
2022-12-24T12:27:27.598Z,1.50
2022-12-24T12:30:12.940Z,1.40
2022-12-24T12:33:14.379Z,1.60
2022-12-24T12:35:43.614Z,1.67
2022-12-24T12:38:29.542Z,1.40
2022-12-24T12:41:32.178Z,1.20
2022-12-24T12:44:16.889Z,1.35
2022-12-24T12:47:02.486Z,1.27
2022-12-24T12:49:55.372Z,1.50
2022-12-24T12:52:43.669Z,1.10
2022-12-24T12:55:42.243Z,1.48
2022-12-24T12:59:01.391Z,1.08
2022-12-24T13:02:04.111Z,0.90
2022-12-24T13:04:34.305Z,1.23
2022-12-24T13:07:56.223Z,1.60
2022-12-24T13:10:35.247Z,0.93
2022-12-24T13:13:20.579Z,1.25
2022-12-24T13:16:09.725Z,1.13
2022-12-24T13:18:55.419Z,1.45
2022-12-24T13:21:25.997Z,1.25
2022-12-24T13:24:15.431Z,1.38
2022-12-24T13:26:43.605Z,1.23
2022-12-24T13:29:40.442Z,1.17
2022-12-24T13:32:20.163Z,0.85
2022-12-24T13:34:50.096Z,1.10
2022-12-24T13:37:21.337Z,1.30
2022-12-24T13:40:10.110Z,0.95
2022-12-24T13:42:49.421Z,0.88
2022-12-24T13:45:29.205Z,1.25
2022-12-24T13:48:13.144Z,1.55
2022-12-24T13:50:42.832Z,0.77
2022-12-24T13:53:19.287Z,1.20
2022-12-24T13:55:59.546Z,0.98
2022-12-24T13:58:26.833Z,1.27
2022-12-24T14:01:12.377Z,0.95
2022-12-24T14:03:47.826Z,0.98
2022-12-24T14:06:33.905Z,1.00
2022-12-24T14:09:10.172Z,1.23
2022-12-24T14:11:58.675Z,1.15
2022-12-24T14:14:37.664Z,0.93
2022-12-24T14:17:29.877Z,1.27
2022-12-24T14:20:02.069Z,1.30
2022-12-24T14:22:45.721Z,1.20
2022-12-24T14:25:24.943Z,1.08
2022-12-24T14:27:58.848Z,1.20
2022-12-24T14:30:30.880Z,1.42
2022-12-24T14:33:00.801Z,1.37
2022-12-24T14:35:37.061Z,1.23
2022-12-24T14:38:23.058Z,1.20
2022-12-24T14:40:53.135Z,1.40
2022-12-24T14:43:32.098Z,1.88
2022-12-24T14:46:31.897Z,1.75
2022-12-24T14:49:15.472Z,1.48
2022-12-24T14:51:54.966Z,1.20
2022-12-24T14:54:34.230Z,1.38
2022-12-24T14:57:10.354Z,1.30
2022-12-24T14:59:46.104Z,1.42
2022-12-24T15:02:41.450Z,1.23
2022-12-24T15:05:12.483Z,1.40
2022-12-24T15:07:47.632Z,1.38
2022-12-24T15:12:52.878Z,1.30
2022-12-24T15:15:20.803Z,1.30
2022-12-24T15:17:48.508Z,1.48
2022-12-24T15:20:22.538Z,1.75
2022-12-24T15:22:56.317Z,1.52
2022-12-24T15:25:28.743Z,1.65
2022-12-24T15:27:56.045Z,1.25
2022-12-24T15:30:28.905Z,1.52
2022-12-24T15:32:58.028Z,1.60
2022-12-24T15:35:34.868Z,1.63
2022-12-24T15:38:04.216Z,2.03
2022-12-24T15:40:33.371Z,1.90
2022-12-24T15:43:00.995Z,1.52
2022-12-24T15:45:31.524Z,1.33
2022-12-24T15:48:06.457Z,1.50
2022-12-24T15:50:43.458Z,1.75
2022-12-24T15:53:19.416Z,1.83
2022-12-24T15:56:03.325Z,1.38
2022-12-24T15:58:38.764Z,1.75
2022-12-24T16:03:39.093Z,1.45
2022-12-24T16:06:12.822Z,1.63
2022-12-24T16:08:41.862Z,1.70
2022-12-24T16:11:09.799Z,1.98
2022-12-24T16:13:43.703Z,2.22
2022-12-24T16:16:16.377Z,1.63
2022-12-24T16:18:46.302Z,1.77
2022-12-24T16:21:25.966Z,1.50
2022-12-24T16:23:56.006Z,1.85
2022-12-24T16:26:23.738Z,1.77
2022-12-24T16:28:50.918Z,2.00
2022-12-24T16:35:25.190Z,2.20
2022-12-24T16:37:55.753Z,1.35
2022-12-24T16:40:27.276Z,1.55
2022-12-24T16:43:15.653Z,1.98
2022-12-24T16:45:44.304Z,2.20
2022-12-24T16:48:22.407Z,1.48
2022-12-24T16:50:50.581Z,2.00
2022-12-24T16:53:19.811Z,1.80
2022-12-24T16:55:47.965Z,2.00
2022-12-24T16:58:17.320Z,2.13
2022-12-24T17:00:47.602Z,1.90
2022-12-24T17:03:15.288Z,1.67
2022-12-24T17:05:44.098Z,1.90
2022-12-24T17:08:13.103Z,1.88
2022-12-24T17:10:40.731Z,2.10
2022-12-24T17:13:08.044Z,1.75
2022-12-24T17:15:35.102Z,1.48
2022-12-24T17:18:03.223Z,1.63
2022-12-24T17:20:33.085Z,1.70
2022-12-24T17:23:00.651Z,1.60
2022-12-24T17:25:27.693Z,1.80
2022-12-24T17:27:57.378Z,2.08
2022-12-24T17:30:26.603Z,1.80
2022-12-24T17:32:54.343Z,1.90
2022-12-24T17:35:21.396Z,1.67
2022-12-24T17:37:48.710Z,2.03
2022-12-24T17:40:15.863Z,1.80
2022-12-24T17:42:45.421Z,1.90
2022-12-24T17:45:14.728Z,2.25
2022-12-24T17:47:42.096Z,2.35
2022-12-24T17:50:12.035Z,2.13
2022-12-24T17:52:42.539Z,1.40
2022-12-24T17:55:10.005Z,1.80
2022-12-24T17:57:37.373Z,1.90
2022-12-24T18:00:07.581Z,2.00
2022-12-24T18:02:38.326Z,1.73
2022-12-24T18:05:08.062Z,1.98
2022-12-24T18:07:37.861Z,1.80
2022-12-24T18:10:06.049Z,1.58
2022-12-24T18:12:33.744Z,1.70
2022-12-24T18:15:00.904Z,1.20
2022-12-24T18:17:28.321Z,1.30
2022-12-24T18:19:55.366Z,2.20
2022-12-24T18:22:22.782Z,1.75
2022-12-24T18:24:49.744Z,1.95
2022-12-24T18:27:17.085Z,1.90
2022-12-24T18:29:46.634Z,1.70
2022-12-24T18:32:17.122Z,2.00
2022-12-24T18:34:44.241Z,1.60
2022-12-24T18:37:11.925Z,2.17
2022-12-24T18:39:43.310Z,2.05
2022-12-24T18:42:14.557Z,2.05
2022-12-24T18:44:42.281Z,2.10
2022-12-24T18:47:09.943Z,2.10
2022-12-24T18:49:39.991Z,1.73
2022-12-24T18:52:11.635Z,1.75
2022-12-24T18:54:40.082Z,1.73
2022-12-24T18:57:07.873Z,3.20
2022-12-24T18:59:36.529Z,2.97
2022-12-24T19:02:06.440Z,2.97
2022-12-24T19:04:33.585Z,2.45
2022-12-24T19:07:01.241Z,3.15
2022-12-24T19:09:28.418Z,2.05
2022-12-24T19:11:55.842Z,1.77
2022-12-24T19:14:25.585Z,2.50
2022-12-24T19:16:52.902Z,2.15
2022-12-24T19:19:24.231Z,1.60
2022-12-24T19:21:51.972Z,2.20
2022-12-24T19:24:20.390Z,1.83
2022-12-24T19:26:50.242Z,2.20
2022-12-24T19:29:17.439Z,2.30
2022-12-24T19:31:47.399Z,2.00
2022-12-24T19:34:14.792Z,2.92
2022-12-24T19:36:44.392Z,2.58
2022-12-24T19:39:11.542Z,2.78
2022-12-24T19:41:38.910Z,2.50
2022-12-24T19:44:05.956Z,2.75
2022-12-24T19:46:37.131Z,2.10
2022-12-24T19:49:07.334Z,2.72
2022-12-24T19:51:36.065Z,2.70
2022-12-24T19:54:04.644Z,2.53
2022-12-24T19:56:33.316Z,1.80
2022-12-24T19:59:01.296Z,2.10
2022-12-24T20:01:31.553Z,2.63
2022-12-24T20:03:59.274Z,2.10
2022-12-24T20:06:30.699Z,2.47
2022-12-24T20:09:02.271Z,3.47
2022-12-24T20:11:32.822Z,2.80
2022-12-24T20:14:02.376Z,3.15
2022-12-24T20:16:30.224Z,3.38
2022-12-24T20:18:59.900Z,3.05
2022-12-24T20:21:27.986Z,3.35
2022-12-24T20:23:55.506Z,3.42
2022-12-24T20:26:27.022Z,3.33
2022-12-24T20:28:55.293Z,3.92
2022-12-24T20:31:24.221Z,4.68
2022-12-24T20:33:51.650Z,4.05
2022-12-24T20:36:22.143Z,4.25
2022-12-24T20:38:49.652Z,4.32
2022-12-24T20:41:20.074Z,4.05
2022-12-24T20:43:48.878Z,3.97
2022-12-24T20:46:18.639Z,3.78
2022-12-24T20:48:46.396Z,2.63
2022-12-24T20:51:23.323Z,2.95
2022-12-24T20:53:55.815Z,2.53
2022-12-24T20:56:23.955Z,2.42
2022-12-24T20:58:51.783Z,2.38
2022-12-24T21:01:24.582Z,1.92
2022-12-24T21:03:56.621Z,2.53
2022-12-24T21:06:25.305Z,2.22
2022-12-24T21:08:54.055Z,2.10
2022-12-24T21:11:41.149Z,2.17
2022-12-24T21:14:10.881Z,2.25
2022-12-24T21:16:39.773Z,2.28
2022-12-24T21:19:09.624Z,2.10
2022-12-24T21:21:39.402Z,2.42
2022-12-24T21:24:07.023Z,2.40
2022-12-24T21:26:35.171Z,2.30
2022-12-24T21:29:04.595Z,2.78
2022-12-24T21:31:33.083Z,2.10
2022-12-24T21:34:00.469Z,2.30
2022-12-24T21:36:28.433Z,2.28
2022-12-24T21:38:57.893Z,2.35
2022-12-24T21:41:26.101Z,2.25
2022-12-24T21:43:53.293Z,1.90
2022-12-24T21:46:25.247Z,2.03
2022-12-24T21:49:12.244Z,1.95
2022-12-24T21:51:44.156Z,2.15
2022-12-24T21:54:23.463Z,2.20
2022-12-24T21:57:10.886Z,2.42
2022-12-24T21:59:38.750Z,2.55
2022-12-24T22:02:07.923Z,2.78
2022-12-24T22:04:40.517Z,2.13
2022-12-24T22:07:31.263Z,2.90
2022-12-24T22:10:17.008Z,2.60
2022-12-24T22:12:44.437Z,1.90
2022-12-24T22:15:12.041Z,2.10
2022-12-24T22:17:39.828Z,2.60
2022-12-24T22:20:10.913Z,1.88
2022-12-24T22:22:38.344Z,1.90
2022-12-24T22:25:05.707Z,2.92
2022-12-24T22:27:33.202Z,2.72
2022-12-24T22:30:00.366Z,2.65
2022-12-24T22:32:30.076Z,2.65
2022-12-24T22:34:59.518Z,2.80
2022-12-24T22:37:27.202Z,2.80
2022-12-24T22:39:54.455Z,2.50
2022-12-24T22:42:22.022Z,2.50
2022-12-24T22:44:49.116Z,2.13
2022-12-24T22:47:18.859Z,2.38
2022-12-24T22:49:50.043Z,2.17
2022-12-24T22:52:18.071Z,1.60
2022-12-24T22:54:45.111Z,2.45
2022-12-24T22:57:12.816Z,3.42
2022-12-24T22:59:40.153Z,3.25
2022-12-24T23:02:08.155Z,2.50
2022-12-24T23:04:37.247Z,3.33
2022-12-24T23:07:10.508Z,2.03
2022-12-24T23:09:40.589Z,2.47
2022-12-24T23:12:08.399Z,2.33
2022-12-24T23:14:54.003Z,1.95
2022-12-24T23:17:23.427Z,2.60
2022-12-24T23:19:53.326Z,2.38
2022-12-24T23:22:21.421Z,2.30
2022-12-24T23:24:49.167Z,2.53
2022-12-24T23:27:16.878Z,2.33
2022-12-24T23:29:44.328Z,2.53
2022-12-24T23:32:14.350Z,2.28
2022-12-24T23:34:41.678Z,2.58
2022-12-24T23:37:09.192Z,2.10
2022-12-24T23:39:36.301Z,2.00
2022-12-24T23:42:03.699Z,2.20
2022-12-24T23:44:32.735Z,2.17
2022-12-24T23:47:02.805Z,2.15
2022-12-24T23:49:30.380Z,1.83
2022-12-24T23:51:57.711Z,2.20
2022-12-24T23:54:24.786Z,2.40
2022-12-24T23:56:52.462Z,3.40
2022-12-24T23:59:19.588Z,4.30
